sensor_id;sensor_type;location;lat;lon;timestamp;P1;durP1;ratioP1;P2;durP2;ratioP2
56541;SDS011;42438;53.174;6.730;2022-12-18T00:00:29;69.88;;;24.35;;
56541;SDS011;42438;53.174;6.730;2022-12-18T00:03:00;76.70;;;25.20;;
56541;SDS011;42438;53.174;6.730;2022-12-18T00:05:30;65.47;;;21.73;;
56541;SDS011;42438;53.174;6.730;2022-12-18T00:08:01;79.60;;;22.35;;
56541;SDS011;42438;53.174;6.730;2022-12-18T00:10:32;72.30;;;22.88;;
56541;SDS011;42438;53.174;6.730;2022-12-18T00:13:03;72.78;;;22.75;;
56541;SDS011;42438;53.174;6.730;2022-12-18T00:15:34;73.55;;;22.52;;
56541;SDS011;42438;53.174;6.730;2022-12-18T00:18:05;69.43;;;22.95;;
56541;SDS011;42438;53.174;6.730;2022-12-18T00:20:37;75.68;;;25.67;;
56541;SDS011;42438;53.174;6.730;2022-12-18T00:23:08;73.55;;;24.70;;
56541;SDS011;42438;53.174;6.730;2022-12-18T00:25:39;77.60;;;23.75;;
56541;SDS011;42438;53.174;6.730;2022-12-18T00:28:09;70.35;;;24.80;;
56541;SDS011;42438;53.174;6.730;2022-12-18T00:30:40;84.10;;;24.48;;
56541;SDS011;42438;53.174;6.730;2022-12-18T00:33:11;72.47;;;22.45;;
56541;SDS011;42438;53.174;6.730;2022-12-18T00:35:41;77.15;;;23.92;;
56541;SDS011;42438;53.174;6.730;2022-12-18T00:38:12;76.65;;;24.02;;
56541;SDS011;42438;53.174;6.730;2022-12-18T00:40:43;68.75;;;24.00;;
56541;SDS011;42438;53.174;6.730;2022-12-18T00:43:14;74.40;;;23.73;;
56541;SDS011;42438;53.174;6.730;2022-12-18T00:45:45;77.10;;;24.70;;
56541;SDS011;42438;53.174;6.730;2022-12-18T00:48:15;85.30;;;24.83;;
56541;SDS011;42438;53.174;6.730;2022-12-18T00:50:49;77.80;;;25.63;;
56541;SDS011;42438;53.174;6.730;2022-12-18T00:53:20;87.05;;;27.20;;
56541;SDS011;42438;53.174;6.730;2022-12-18T00:55:51;76.95;;;26.15;;
56541;SDS011;42438;53.174;6.730;2022-12-18T00:58:21;80.22;;;25.92;;
56541;SDS011;42438;53.174;6.730;2022-12-18T01:00:52;80.40;;;25.27;;
56541;SDS011;42438;53.174;6.730;2022-12-18T01:03:23;74.55;;;24.85;;
56541;SDS011;42438;53.174;6.730;2022-12-18T01:05:53;71.60;;;22.40;;
56541;SDS011;42438;53.174;6.730;2022-12-18T01:08:24;72.15;;;24.35;;
56541;SDS011;42438;53.174;6.730;2022-12-18T01:10:55;72.22;;;22.52;;
56541;SDS011;42438;53.174;6.730;2022-12-18T01:13:25;64.85;;;21.23;;
56541;SDS011;42438;53.174;6.730;2022-12-18T01:15:56;69.35;;;24.85;;
56541;SDS011;42438;53.174;6.730;2022-12-18T01:18:27;73.30;;;23.95;;
56541;SDS011;42438;53.174;6.730;2022-12-18T01:20:58;73.93;;;25.42;;
56541;SDS011;42438;53.174;6.730;2022-12-18T01:23:28;65.22;;;23.30;;
56541;SDS011;42438;53.174;6.730;2022-12-18T01:26:03;71.30;;;25.35;;
56541;SDS011;42438;53.174;6.730;2022-12-18T01:28:44;69.22;;;22.48;;
56541;SDS011;42438;53.174;6.730;2022-12-18T01:31:22;75.60;;;21.85;;
56541;SDS011;42438;53.174;6.730;2022-12-18T01:33:55;65.38;;;21.45;;
56541;SDS011;42438;53.174;6.730;2022-12-18T01:36:28;70.75;;;23.45;;
56541;SDS011;42438;53.174;6.730;2022-12-18T01:39:01;68.13;;;22.40;;
56541;SDS011;42438;53.174;6.730;2022-12-18T01:41:36;71.97;;;23.30;;
56541;SDS011;42438;53.174;6.730;2022-12-18T01:50:16;67.00;;;21.40;;
56541;SDS011;42438;53.174;6.730;2022-12-18T01:52:53;67.55;;;24.60;;
56541;SDS011;42438;53.174;6.730;2022-12-18T01:55:29;65.43;;;21.90;;
56541;SDS011;42438;53.174;6.730;2022-12-18T01:58:02;75.15;;;23.10;;
56541;SDS011;42438;53.174;6.730;2022-12-18T02:00:33;80.75;;;24.98;;
56541;SDS011;42438;53.174;6.730;2022-12-18T02:03:04;77.20;;;23.48;;
56541;SDS011;42438;53.174;6.730;2022-12-18T02:13:44;83.38;;;24.55;;
56541;SDS011;42438;53.174;6.730;2022-12-18T02:18:51;79.63;;;25.38;;
56541;SDS011;42438;53.174;6.730;2022-12-18T02:24:24;81.60;;;26.52;;
56541;SDS011;42438;53.174;6.730;2022-12-18T02:27:16;79.15;;;23.80;;
56541;SDS011;42438;53.174;6.730;2022-12-18T02:29:50;88.57;;;25.80;;
56541;SDS011;42438;53.174;6.730;2022-12-18T02:32:24;71.05;;;25.40;;
56541;SDS011;42438;53.174;6.730;2022-12-18T02:34:57;81.93;;;23.83;;
56541;SDS011;42438;53.174;6.730;2022-12-18T02:37:29;81.53;;;25.90;;
56541;SDS011;42438;53.174;6.730;2022-12-18T02:40:02;79.78;;;25.45;;
56541;SDS011;42438;53.174;6.730;2022-12-18T02:42:34;79.82;;;25.50;;
56541;SDS011;42438;53.174;6.730;2022-12-18T02:45:05;82.13;;;25.10;;
56541;SDS011;42438;53.174;6.730;2022-12-18T02:47:37;87.60;;;25.70;;
56541;SDS011;42438;53.174;6.730;2022-12-18T02:53:17;69.43;;;24.85;;
56541;SDS011;42438;53.174;6.730;2022-12-18T03:01:21;69.80;;;22.67;;
56541;SDS011;42438;53.174;6.730;2022-12-18T03:03:59;82.60;;;25.50;;
56541;SDS011;42438;53.174;6.730;2022-12-18T03:06:37;84.60;;;27.88;;
56541;SDS011;42438;53.174;6.730;2022-12-18T03:09:12;77.97;;;25.50;;
56541;SDS011;42438;53.174;6.730;2022-12-18T03:11:49;86.55;;;25.00;;
56541;SDS011;42438;53.174;6.730;2022-12-18T03:14:44;70.13;;;24.77;;
56541;SDS011;42438;53.174;6.730;2022-12-18T03:17:19;84.28;;;25.60;;
56541;SDS011;42438;53.174;6.730;2022-12-18T03:19:53;82.03;;;27.05;;
56541;SDS011;42438;53.174;6.730;2022-12-18T03:22:29;72.30;;;24.30;;
56541;SDS011;42438;53.174;6.730;2022-12-18T03:25:03;80.93;;;26.35;;
56541;SDS011;42438;53.174;6.730;2022-12-18T03:27:38;77.50;;;26.60;;
56541;SDS011;42438;53.174;6.730;2022-12-18T03:30:15;73.30;;;24.27;;
56541;SDS011;42438;53.174;6.730;2022-12-18T03:32:47;70.57;;;24.70;;
56541;SDS011;42438;53.174;6.730;2022-12-18T03:35:25;76.03;;;26.38;;
56541;SDS011;42438;53.174;6.730;2022-12-18T03:37:58;74.88;;;25.92;;
56541;SDS011;42438;53.174;6.730;2022-12-18T03:43:38;88.28;;;28.13;;
56541;SDS011;42438;53.174;6.730;2022-12-18T03:46:29;75.00;;;25.05;;
56541;SDS011;42438;53.174;6.730;2022-12-18T03:49:13;81.95;;;27.27;;
56541;SDS011;42438;53.174;6.730;2022-12-18T03:52:11;85.32;;;25.48;;
56541;SDS011;42438;53.174;6.730;2022-12-18T03:54:50;76.78;;;25.58;;
56541;SDS011;42438;53.174;6.730;2022-12-18T03:57:24;78.88;;;30.75;;
56541;SDS011;42438;53.174;6.730;2022-12-18T04:00:03;80.65;;;25.08;;
56541;SDS011;42438;53.174;6.730;2022-12-18T04:02:46;79.95;;;26.27;;
56541;SDS011;42438;53.174;6.730;2022-12-18T04:05:23;77.80;;;26.00;;
56541;SDS011;42438;53.174;6.730;2022-12-18T04:07:55;72.75;;;25.55;;
56541;SDS011;42438;53.174;6.730;2022-12-18T04:10:27;66.00;;;26.20;;
56541;SDS011;42438;53.174;6.730;2022-12-18T04:12:58;80.63;;;25.42;;
56541;SDS011;42438;53.174;6.730;2022-12-18T04:15:29;76.28;;;26.38;;
56541;SDS011;42438;53.174;6.730;2022-12-18T04:18:01;75.20;;;25.95;;
56541;SDS011;42438;53.174;6.730;2022-12-18T04:20:32;77.05;;;26.92;;
56541;SDS011;42438;53.174;6.730;2022-12-18T04:23:03;75.15;;;26.55;;
56541;SDS011;42438;53.174;6.730;2022-12-18T04:25:33;74.30;;;25.90;;
56541;SDS011;42438;53.174;6.730;2022-12-18T04:28:04;79.88;;;26.52;;
56541;SDS011;42438;53.174;6.730;2022-12-18T04:30:35;76.05;;;25.25;;
56541;SDS011;42438;53.174;6.730;2022-12-18T04:33:09;73.88;;;25.70;;
56541;SDS011;42438;53.174;6.730;2022-12-18T04:35:41;75.10;;;27.08;;
56541;SDS011;42438;53.174;6.730;2022-12-18T04:38:11;82.97;;;28.77;;
56541;SDS011;42438;53.174;6.730;2022-12-18T04:40:42;71.97;;;26.25;;
56541;SDS011;42438;53.174;6.730;2022-12-18T04:43:13;75.47;;;24.15;;
56541;SDS011;42438;53.174;6.730;2022-12-18T04:45:44;71.32;;;24.58;;
56541;SDS011;42438;53.174;6.730;2022-12-18T04:48:14;71.40;;;24.65;;
56541;SDS011;42438;53.174;6.730;2022-12-18T04:50:46;67.63;;;25.20;;
56541;SDS011;42438;53.174;6.730;2022-12-18T04:53:17;72.95;;;24.05;;
56541;SDS011;42438;53.174;6.730;2022-12-18T04:55:47;74.05;;;24.35;;
56541;SDS011;42438;53.174;6.730;2022-12-18T04:58:18;68.35;;;25.25;;
56541;SDS011;42438;53.174;6.730;2022-12-18T05:00:49;68.40;;;23.52;;
56541;SDS011;42438;53.174;6.730;2022-12-18T05:03:19;73.25;;;25.23;;
56541;SDS011;42438;53.174;6.730;2022-12-18T05:05:50;72.72;;;22.90;;
56541;SDS011;42438;53.174;6.730;2022-12-18T05:08:21;58.83;;;22.33;;
56541;SDS011;42438;53.174;6.730;2022-12-18T05:10:59;72.05;;;24.88;;
56541;SDS011;42438;53.174;6.730;2022-12-18T05:13:34;67.22;;;22.50;;
56541;SDS011;42438;53.174;6.730;2022-12-18T05:16:05;62.00;;;23.15;;
56541;SDS011;42438;53.174;6.730;2022-12-18T05:18:37;67.70;;;22.90;;
56541;SDS011;42438;53.174;6.730;2022-12-18T05:21:08;62.47;;;20.80;;
56541;SDS011;42438;53.174;6.730;2022-12-18T05:23:38;61.60;;;24.80;;
56541;SDS011;42438;53.174;6.730;2022-12-18T05:26:09;59.13;;;22.27;;
56541;SDS011;42438;53.174;6.730;2022-12-18T05:28:47;68.32;;;23.88;;
56541;SDS011;42438;53.174;6.730;2022-12-18T05:31:17;55.20;;;23.67;;
56541;SDS011;42438;53.174;6.730;2022-12-18T05:33:48;56.78;;;22.25;;
56541;SDS011;42438;53.174;6.730;2022-12-18T05:36:19;58.88;;;24.00;;
56541;SDS011;42438;53.174;6.730;2022-12-18T05:38:50;56.58;;;21.05;;
56541;SDS011;42438;53.174;6.730;2022-12-18T05:41:20;60.55;;;21.80;;
56541;SDS011;42438;53.174;6.730;2022-12-18T05:43:51;57.30;;;20.38;;
56541;SDS011;42438;53.174;6.730;2022-12-18T05:46:21;53.50;;;20.10;;
56541;SDS011;42438;53.174;6.730;2022-12-18T05:48:52;56.67;;;21.27;;
56541;SDS011;42438;53.174;6.730;2022-12-18T05:51:23;56.67;;;21.63;;
56541;SDS011;42438;53.174;6.730;2022-12-18T05:53:53;56.33;;;22.95;;
56541;SDS011;42438;53.174;6.730;2022-12-18T05:56:24;42.03;;;18.60;;
56541;SDS011;42438;53.174;6.730;2022-12-18T05:58:55;47.20;;;19.58;;
56541;SDS011;42438;53.174;6.730;2022-12-18T06:01:26;43.20;;;18.35;;
56541;SDS011;42438;53.174;6.730;2022-12-18T06:03:56;49.33;;;19.63;;
56541;SDS011;42438;53.174;6.730;2022-12-18T06:06:27;45.45;;;18.15;;
56541;SDS011;42438;53.174;6.730;2022-12-18T06:08:58;48.17;;;17.85;;
56541;SDS011;42438;53.174;6.730;2022-12-18T06:11:31;42.67;;;18.05;;
56541;SDS011;42438;53.174;6.730;2022-12-18T06:14:02;52.75;;;19.50;;
56541;SDS011;42438;53.174;6.730;2022-12-18T06:16:33;49.55;;;18.52;;
56541;SDS011;42438;53.174;6.730;2022-12-18T06:19:05;42.22;;;18.85;;
56541;SDS011;42438;53.174;6.730;2022-12-18T06:21:35;45.60;;;18.85;;
56541;SDS011;42438;53.174;6.730;2022-12-18T06:24:06;45.78;;;18.80;;
56541;SDS011;42438;53.174;6.730;2022-12-18T06:26:40;42.85;;;18.30;;
56541;SDS011;42438;53.174;6.730;2022-12-18T06:29:11;44.30;;;17.35;;
56541;SDS011;42438;53.174;6.730;2022-12-18T06:31:42;49.25;;;17.58;;
56541;SDS011;42438;53.174;6.730;2022-12-18T06:34:12;45.88;;;17.08;;
56541;SDS011;42438;53.174;6.730;2022-12-18T06:36:43;49.25;;;18.25;;
56541;SDS011;42438;53.174;6.730;2022-12-18T06:39:13;43.30;;;17.90;;
56541;SDS011;42438;53.174;6.730;2022-12-18T06:41:44;50.63;;;16.60;;
56541;SDS011;42438;53.174;6.730;2022-12-18T06:44:15;43.85;;;18.55;;
56541;SDS011;42438;53.174;6.730;2022-12-18T06:46:45;41.00;;;17.25;;
56541;SDS011;42438;53.174;6.730;2022-12-18T06:49:16;43.33;;;17.30;;
56541;SDS011;42438;53.174;6.730;2022-12-18T06:51:47;46.30;;;17.42;;
56541;SDS011;42438;53.174;6.730;2022-12-18T06:54:17;42.83;;;17.30;;
56541;SDS011;42438;53.174;6.730;2022-12-18T06:56:48;44.60;;;16.63;;
56541;SDS011;42438;53.174;6.730;2022-12-18T06:59:19;42.97;;;17.45;;
56541;SDS011;42438;53.174;6.730;2022-12-18T07:01:49;43.80;;;17.30;;
56541;SDS011;42438;53.174;6.730;2022-12-18T07:04:20;38.67;;;15.30;;
56541;SDS011;42438;53.174;6.730;2022-12-18T07:06:51;40.40;;;17.75;;
56541;SDS011;42438;53.174;6.730;2022-12-18T07:09:21;47.10;;;18.13;;
56541;SDS011;42438;53.174;6.730;2022-12-18T07:11:52;42.88;;;17.52;;
56541;SDS011;42438;53.174;6.730;2022-12-18T07:14:23;38.83;;;17.45;;
56541;SDS011;42438;53.174;6.730;2022-12-18T07:16:53;43.75;;;17.25;;
56541;SDS011;42438;53.174;6.730;2022-12-18T07:19:24;46.00;;;18.15;;
56541;SDS011;42438;53.174;6.730;2022-12-18T07:21:55;40.50;;;16.35;;
56541;SDS011;42438;53.174;6.730;2022-12-18T07:24:25;42.72;;;17.88;;
56541;SDS011;42438;53.174;6.730;2022-12-18T07:26:56;42.40;;;16.90;;
56541;SDS011;42438;53.174;6.730;2022-12-18T07:29:27;38.63;;;16.73;;
56541;SDS011;42438;53.174;6.730;2022-12-18T07:31:57;43.20;;;18.08;;
56541;SDS011;42438;53.174;6.730;2022-12-18T07:34:28;42.85;;;17.45;;
56541;SDS011;42438;53.174;6.730;2022-12-18T07:36:59;41.20;;;16.92;;
56541;SDS011;42438;53.174;6.730;2022-12-18T07:39:29;44.97;;;19.25;;
56541;SDS011;42438;53.174;6.730;2022-12-18T07:42:00;41.47;;;18.48;;
56541;SDS011;42438;53.174;6.730;2022-12-18T07:44:49;39.97;;;17.13;;
56541;SDS011;42438;53.174;6.730;2022-12-18T07:47:20;41.80;;;16.65;;
56541;SDS011;42438;53.174;6.730;2022-12-18T07:49:51;33.40;;;14.73;;
56541;SDS011;42438;53.174;6.730;2022-12-18T07:52:21;33.40;;;14.50;;
56541;SDS011;42438;53.174;6.730;2022-12-18T07:54:52;40.15;;;17.20;;
56541;SDS011;42438;53.174;6.730;2022-12-18T07:57:23;41.42;;;16.45;;
56541;SDS011;42438;53.174;6.730;2022-12-18T07:59:53;37.63;;;16.98;;
56541;SDS011;42438;53.174;6.730;2022-12-18T08:02:24;42.35;;;17.38;;
56541;SDS011;42438;53.174;6.730;2022-12-18T08:04:55;37.88;;;15.80;;
56541;SDS011;42438;53.174;6.730;2022-12-18T08:07:25;39.50;;;15.93;;
56541;SDS011;42438;53.174;6.730;2022-12-18T08:09:56;39.65;;;15.90;;
56541;SDS011;42438;53.174;6.730;2022-12-18T08:12:27;42.10;;;18.05;;
56541;SDS011;42438;53.174;6.730;2022-12-18T08:14:57;38.40;;;16.08;;
56541;SDS011;42438;53.174;6.730;2022-12-18T08:17:28;37.60;;;15.77;;
56541;SDS011;42438;53.174;6.730;2022-12-18T08:19:59;36.60;;;16.15;;
56541;SDS011;42438;53.174;6.730;2022-12-18T08:22:29;40.50;;;16.25;;
56541;SDS011;42438;53.174;6.730;2022-12-18T08:25:00;35.92;;;15.32;;
56541;SDS011;42438;53.174;6.730;2022-12-18T08:27:31;41.75;;;15.98;;
56541;SDS011;42438;53.174;6.730;2022-12-18T08:30:02;41.58;;;17.02;;
56541;SDS011;42438;53.174;6.730;2022-12-18T08:32:34;39.50;;;16.83;;
56541;SDS011;42438;53.174;6.730;2022-12-18T08:35:05;34.35;;;15.07;;
56541;SDS011;42438;53.174;6.730;2022-12-18T08:37:36;39.53;;;15.20;;
56541;SDS011;42438;53.174;6.730;2022-12-18T08:40:07;38.75;;;17.40;;
56541;SDS011;42438;53.174;6.730;2022-12-18T08:42:38;38.20;;;15.95;;
56541;SDS011;42438;53.174;6.730;2022-12-18T08:45:27;36.10;;;15.55;;
56541;SDS011;42438;53.174;6.730;2022-12-18T08:47:58;35.92;;;15.93;;
56541;SDS011;42438;53.174;6.730;2022-12-18T08:50:29;36.67;;;15.65;;
56541;SDS011;42438;53.174;6.730;2022-12-18T08:53:00;34.33;;;13.93;;
56541;SDS011;42438;53.174;6.730;2022-12-18T08:55:31;36.25;;;14.57;;
56541;SDS011;42438;53.174;6.730;2022-12-18T08:58:01;29.42;;;14.27;;
56541;SDS011;42438;53.174;6.730;2022-12-18T09:00:32;33.10;;;13.90;;
56541;SDS011;42438;53.174;6.730;2022-12-18T09:03:03;33.67;;;15.70;;
56541;SDS011;42438;53.174;6.730;2022-12-18T09:05:33;34.58;;;15.02;;
56541;SDS011;42438;53.174;6.730;2022-12-18T09:08:04;33.35;;;13.90;;
56541;SDS011;42438;53.174;6.730;2022-12-18T09:10:41;30.55;;;14.70;;
56541;SDS011;42438;53.174;6.730;2022-12-18T09:13:13;33.25;;;14.57;;
56541;SDS011;42438;53.174;6.730;2022-12-18T09:15:49;27.50;;;12.50;;
56541;SDS011;42438;53.174;6.730;2022-12-18T09:18:23;25.15;;;12.55;;
56541;SDS011;42438;53.174;6.730;2022-12-18T09:20:55;29.35;;;13.68;;
56541;SDS011;42438;53.174;6.730;2022-12-18T09:23:25;29.85;;;12.88;;
56541;SDS011;42438;53.174;6.730;2022-12-18T09:25:59;26.25;;;12.30;;
56541;SDS011;42438;53.174;6.730;2022-12-18T09:28:30;32.97;;;13.18;;
56541;SDS011;42438;53.174;6.730;2022-12-18T09:31:05;26.88;;;12.65;;
56541;SDS011;42438;53.174;6.730;2022-12-18T09:33:37;27.35;;;12.07;;
56541;SDS011;42438;53.174;6.730;2022-12-18T09:36:09;24.77;;;12.10;;
56541;SDS011;42438;53.174;6.730;2022-12-18T09:38:42;24.65;;;11.52;;
56541;SDS011;42438;53.174;6.730;2022-12-18T09:44:13;21.88;;;10.13;;
56541;SDS011;42438;53.174;6.730;2022-12-18T09:46:52;23.27;;;11.10;;
56541;SDS011;42438;53.174;6.730;2022-12-18T09:49:24;24.77;;;10.80;;
56541;SDS011;42438;53.174;6.730;2022-12-18T09:54:46;20.17;;;9.93;;
56541;SDS011;42438;53.174;6.730;2022-12-18T09:57:42;24.40;;;10.18;;
56541;SDS011;42438;53.174;6.730;2022-12-18T10:00:19;21.80;;;10.15;;
56541;SDS011;42438;53.174;6.730;2022-12-18T10:02:51;20.50;;;9.93;;
56541;SDS011;42438;53.174;6.730;2022-12-18T10:08:22;17.13;;;8.75;;
56541;SDS011;42438;53.174;6.730;2022-12-18T10:11:03;22.35;;;9.40;;
56541;SDS011;42438;53.174;6.730;2022-12-18T10:13:42;19.05;;;8.57;;
56541;SDS011;42438;53.174;6.730;2022-12-18T10:16:20;18.42;;;8.43;;
56541;SDS011;42438;53.174;6.730;2022-12-18T10:24:39;17.75;;;8.80;;
56541;SDS011;42438;53.174;6.730;2022-12-18T10:27:23;20.33;;;8.75;;
56541;SDS011;42438;53.174;6.730;2022-12-18T10:29:56;17.67;;;8.20;;
56541;SDS011;42438;53.174;6.730;2022-12-18T10:32:29;16.17;;;7.68;;
56541;SDS011;42438;53.174;6.730;2022-12-18T10:35:00;18.05;;;8.60;;
56541;SDS011;42438;53.174;6.730;2022-12-18T10:37:31;16.73;;;8.18;;
56541;SDS011;42438;53.174;6.730;2022-12-18T10:42:38;18.60;;;8.88;;
56541;SDS011;42438;53.174;6.730;2022-12-18T10:45:15;16.43;;;9.03;;
56541;SDS011;42438;53.174;6.730;2022-12-18T10:47:48;21.98;;;9.70;;
56541;SDS011;42438;53.174;6.730;2022-12-18T10:50:22;24.03;;;10.33;;
56541;SDS011;42438;53.174;6.730;2022-12-18T10:53:00;26.80;;;11.13;;
56541;SDS011;42438;53.174;6.730;2022-12-18T10:55:34;20.90;;;10.43;;
56541;SDS011;42438;53.174;6.730;2022-12-18T10:58:25;18.85;;;9.93;;
56541;SDS011;42438;53.174;6.730;2022-12-18T11:03:40;17.00;;;8.10;;
56541;SDS011;42438;53.174;6.730;2022-12-18T11:06:20;17.77;;;7.95;;
56541;SDS011;42438;53.174;6.730;2022-12-18T11:09:03;13.45;;;7.15;;
56541;SDS011;42438;53.174;6.730;2022-12-18T11:11:35;15.75;;;7.00;;
56541;SDS011;42438;53.174;6.730;2022-12-18T11:14:15;14.80;;;6.93;;
56541;SDS011;42438;53.174;6.730;2022-12-18T11:17:02;14.65;;;8.30;;
56541;SDS011;42438;53.174;6.730;2022-12-18T11:19:36;20.25;;;9.02;;
56541;SDS011;42438;53.174;6.730;2022-12-18T11:22:19;19.90;;;8.88;;
56541;SDS011;42438;53.174;6.730;2022-12-18T11:25:04;16.30;;;8.18;;
56541;SDS011;42438;53.174;6.730;2022-12-18T11:27:51;18.73;;;8.02;;
56541;SDS011;42438;53.174;6.730;2022-12-18T11:30:28;15.93;;;7.05;;
56541;SDS011;42438;53.174;6.730;2022-12-18T11:33:05;16.25;;;8.18;;
56541;SDS011;42438;53.174;6.730;2022-12-18T11:35:52;13.82;;;7.15;;
56541;SDS011;42438;53.174;6.730;2022-12-18T11:38:28;11.10;;;6.30;;
56541;SDS011;42438;53.174;6.730;2022-12-18T11:41:09;12.02;;;6.28;;
56541;SDS011;42438;53.174;6.730;2022-12-18T11:44:01;13.88;;;6.13;;
56541;SDS011;42438;53.174;6.730;2022-12-18T11:46:38;17.25;;;7.88;;
56541;SDS011;42438;53.174;6.730;2022-12-18T11:49:21;23.13;;;10.57;;
56541;SDS011;42438;53.174;6.730;2022-12-18T11:54:50;39.25;;;16.65;;
56541;SDS011;42438;53.174;6.730;2022-12-18T11:57:36;71.55;;;26.48;;
56541;SDS011;42438;53.174;6.730;2022-12-18T12:05:54;19.33;;;9.13;;
56541;SDS011;42438;53.174;6.730;2022-12-18T12:08:38;32.78;;;13.85;;
56541;SDS011;42438;53.174;6.730;2022-12-18T12:14:25;18.40;;;9.32;;
56541;SDS011;42438;53.174;6.730;2022-12-18T12:20:08;13.35;;;6.97;;
56541;SDS011;42438;53.174;6.730;2022-12-18T12:26:08;38.38;;;16.77;;
56541;SDS011;42438;53.174;6.730;2022-12-18T12:31:19;35.00;;;14.25;;
56541;SDS011;42438;53.174;6.730;2022-12-18T12:39:58;11.52;;;5.72;;
56541;SDS011;42438;53.174;6.730;2022-12-18T12:42:35;12.93;;;6.25;;
56541;SDS011;42438;53.174;6.730;2022-12-18T12:45:39;13.40;;;6.57;;
56541;SDS011;42438;53.174;6.730;2022-12-18T12:48:45;10.45;;;4.95;;
56541;SDS011;42438;53.174;6.730;2022-12-18T12:51:20;16.67;;;7.13;;
56541;SDS011;42438;53.174;6.730;2022-12-18T12:53:51;14.48;;;6.18;;
56541;SDS011;42438;53.174;6.730;2022-12-18T12:56:25;13.70;;;6.13;;
56541;SDS011;42438;53.174;6.730;2022-12-18T13:02:33;11.13;;;6.20;;
56541;SDS011;42438;53.174;6.730;2022-12-18T13:08:50;12.80;;;5.80;;
56541;SDS011;42438;53.174;6.730;2022-12-18T13:14:26;10.32;;;5.50;;
56541;SDS011;42438;53.174;6.730;2022-12-18T13:19:56;9.70;;;5.35;;
56541;SDS011;42438;53.174;6.730;2022-12-18T13:22:49;11.82;;;6.07;;
56541;SDS011;42438;53.174;6.730;2022-12-18T13:25:36;10.52;;;6.20;;
56541;SDS011;42438;53.174;6.730;2022-12-18T13:28:09;11.88;;;5.57;;
56541;SDS011;42438;53.174;6.730;2022-12-18T13:30:49;10.73;;;5.03;;
56541;SDS011;42438;53.174;6.730;2022-12-18T13:39:40;15.55;;;6.63;;
56541;SDS011;42438;53.174;6.730;2022-12-18T13:44:38;11.07;;;5.60;;
56541;SDS011;42438;53.174;6.730;2022-12-18T13:50:21;14.30;;;7.25;;
56541;SDS011;42438;53.174;6.730;2022-12-18T13:52:56;19.02;;;7.63;;
56541;SDS011;42438;53.174;6.730;2022-12-18T13:55:27;16.65;;;7.38;;
56541;SDS011;42438;53.174;6.730;2022-12-18T13:58:05;16.73;;;7.75;;
56541;SDS011;42438;53.174;6.730;2022-12-18T14:00:36;61.40;;;20.05;;
56541;SDS011;42438;53.174;6.730;2022-12-18T14:03:30;319.40;;;80.15;;
56541;SDS011;42438;53.174;6.730;2022-12-18T14:06:03;26.25;;;12.35;;
56541;SDS011;42438;53.174;6.730;2022-12-18T14:08:40;22.20;;;9.65;;
56541;SDS011;42438;53.174;6.730;2022-12-18T14:11:18;24.90;;;11.70;;
56541;SDS011;42438;53.174;6.730;2022-12-18T14:13:52;30.70;;;13.38;;
56541;SDS011;42438;53.174;6.730;2022-12-18T14:16:23;16.38;;;7.57;;
56541;SDS011;42438;53.174;6.730;2022-12-18T14:18:55;12.30;;;6.03;;
56541;SDS011;42438;53.174;6.730;2022-12-18T14:21:28;11.60;;;5.78;;
56541;SDS011;42438;53.174;6.730;2022-12-18T14:24:04;10.73;;;5.72;;
56541;SDS011;42438;53.174;6.730;2022-12-18T14:26:56;9.90;;;5.35;;
56541;SDS011;42438;53.174;6.730;2022-12-18T14:29:53;11.57;;;5.57;;
56541;SDS011;42438;53.174;6.730;2022-12-18T14:32:23;10.63;;;5.68;;
56541;SDS011;42438;53.174;6.730;2022-12-18T14:34:54;13.32;;;6.28;;
56541;SDS011;42438;53.174;6.730;2022-12-18T14:37:25;12.32;;;6.45;;
56541;SDS011;42438;53.174;6.730;2022-12-18T14:39:58;14.25;;;6.70;;
56541;SDS011;42438;53.174;6.730;2022-12-18T14:42:36;14.45;;;7.25;;
56541;SDS011;42438;53.174;6.730;2022-12-18T14:48:07;15.60;;;7.53;;
56541;SDS011;42438;53.174;6.730;2022-12-18T14:50:41;16.30;;;7.07;;
56541;SDS011;42438;53.174;6.730;2022-12-18T14:53:18;14.73;;;8.30;;
56541;SDS011;42438;53.174;6.730;2022-12-18T14:58:50;15.18;;;7.97;;
56541;SDS011;42438;53.174;6.730;2022-12-18T15:01:25;15.90;;;7.57;;
56541;SDS011;42438;53.174;6.730;2022-12-18T15:03:59;16.73;;;8.00;;
56541;SDS011;42438;53.174;6.730;2022-12-18T15:09:20;15.20;;;8.60;;
56541;SDS011;42438;53.174;6.730;2022-12-18T15:11:57;14.45;;;7.32;;
56541;SDS011;42438;53.174;6.730;2022-12-18T15:17:00;15.27;;;7.45;;
56541;SDS011;42438;53.174;6.730;2022-12-18T15:24:57;13.80;;;6.97;;
56541;SDS011;42438;53.174;6.730;2022-12-18T15:27:30;14.50;;;6.55;;
56541;SDS011;42438;53.174;6.730;2022-12-18T15:32:39;14.38;;;7.47;;
56541;SDS011;42438;53.174;6.730;2022-12-18T15:35:20;15.23;;;7.55;;
56541;SDS011;42438;53.174;6.730;2022-12-18T15:37:52;15.60;;;7.30;;
56541;SDS011;42438;53.174;6.730;2022-12-18T15:40:23;13.00;;;7.22;;
56541;SDS011;42438;53.174;6.730;2022-12-18T15:42:54;13.32;;;7.45;;
56541;SDS011;42438;53.174;6.730;2022-12-18T15:45:44;13.80;;;7.57;;
56541;SDS011;42438;53.174;6.730;2022-12-18T15:48:21;12.18;;;7.43;;
56541;SDS011;42438;53.174;6.730;2022-12-18T15:50:53;17.88;;;7.35;;
56541;SDS011;42438;53.174;6.730;2022-12-18T15:53:30;13.95;;;7.63;;
56541;SDS011;42438;53.174;6.730;2022-12-18T15:56:04;16.98;;;8.18;;
56541;SDS011;42438;53.174;6.730;2022-12-18T15:58:56;15.83;;;7.07;;
56541;SDS011;42438;53.174;6.730;2022-12-18T16:01:28;17.25;;;7.38;;
56541;SDS011;42438;53.174;6.730;2022-12-18T16:04:01;14.23;;;7.22;;
56541;SDS011;42438;53.174;6.730;2022-12-18T16:06:31;15.65;;;7.32;;
56541;SDS011;42438;53.174;6.730;2022-12-18T16:09:02;16.55;;;7.45;;
56541;SDS011;42438;53.174;6.730;2022-12-18T16:11:35;16.47;;;7.67;;
56541;SDS011;42438;53.174;6.730;2022-12-18T16:14:13;17.33;;;7.55;;
56541;SDS011;42438;53.174;6.730;2022-12-18T16:17:13;21.42;;;8.85;;
56541;SDS011;42438;53.174;6.730;2022-12-18T16:19:43;20.98;;;8.98;;
56541;SDS011;42438;53.174;6.730;2022-12-18T16:22:19;17.77;;;8.73;;
56541;SDS011;42438;53.174;6.730;2022-12-18T16:24:52;15.98;;;8.18;;
56541;SDS011;42438;53.174;6.730;2022-12-18T16:27:23;17.77;;;8.43;;
56541;SDS011;42438;53.174;6.730;2022-12-18T16:29:54;15.00;;;7.57;;
56541;SDS011;42438;53.174;6.730;2022-12-18T16:32:25;20.58;;;10.65;;
56541;SDS011;42438;53.174;6.730;2022-12-18T16:34:59;39.45;;;13.13;;
56541;SDS011;42438;53.174;6.730;2022-12-18T16:37:30;50.60;;;19.95;;
56541;SDS011;42438;53.174;6.730;2022-12-18T16:40:01;28.02;;;12.93;;
56541;SDS011;42438;53.174;6.730;2022-12-18T16:42:31;70.88;;;26.42;;
56541;SDS011;42438;53.174;6.730;2022-12-18T16:45:02;39.38;;;15.82;;
56541;SDS011;42438;53.174;6.730;2022-12-18T16:47:34;17.02;;;9.38;;
56541;SDS011;42438;53.174;6.730;2022-12-18T16:50:05;14.75;;;7.78;;
56541;SDS011;42438;53.174;6.730;2022-12-18T16:52:37;16.20;;;9.52;;
56541;SDS011;42438;53.174;6.730;2022-12-18T16:55:08;17.30;;;8.57;;
56541;SDS011;42438;53.174;6.730;2022-12-18T16:57:39;14.07;;;6.95;;
56541;SDS011;42438;53.174;6.730;2022-12-18T17:00:10;16.38;;;7.82;;
56541;SDS011;42438;53.174;6.730;2022-12-18T17:02:41;13.15;;;6.75;;
56541;SDS011;42438;53.174;6.730;2022-12-18T17:05:12;14.68;;;7.07;;
56541;SDS011;42438;53.174;6.730;2022-12-18T17:07:42;17.38;;;7.75;;